createdAt,value
2018-07-20T00:01:12.007Z,56.55
2018-07-20T00:03:40.332Z,56.34
2018-07-20T00:06:08.670Z,56.63
2018-07-20T00:08:36.988Z,56.70
2018-07-20T00:11:05.369Z,56.47
2018-07-20T00:13:33.707Z,56.39
2018-07-20T00:16:02.024Z,56.60
2018-07-20T00:18:30.329Z,56.70
2018-07-20T00:20:58.635Z,56.83
2018-07-20T00:23:26.984Z,57.01
2018-07-20T00:25:55.329Z,56.69
2018-07-20T00:28:23.708Z,57.21
2018-07-20T00:30:52.060Z,58.39
2018-07-20T00:33:20.404Z,57.74
2018-07-20T00:35:48.731Z,57.62
2018-07-20T00:38:17.047Z,57.88
2018-07-20T00:40:45.373Z,57.43
2018-07-20T00:43:14.013Z,57.97
2018-07-20T00:45:42.324Z,58.41
2018-07-20T00:48:10.647Z,59.65
2018-07-20T00:50:38.959Z,59.20
2018-07-20T00:53:07.318Z,58.94
2018-07-20T00:55:35.644Z,58.82
2018-07-20T00:58:03.982Z,59.10
2018-07-20T01:00:32.319Z,59.85
2018-07-20T01:03:00.670Z,60.19
2018-07-20T01:05:29.043Z,60.31
2018-07-20T01:07:57.441Z,60.20
2018-07-20T01:10:25.788Z,60.87
2018-07-20T01:12:54.117Z,60.95
2018-07-20T01:15:22.493Z,61.10
2018-07-20T01:17:50.817Z,61.69
2018-07-20T01:20:19.130Z,63.17
2018-07-20T01:22:47.674Z,61.99
2018-07-20T01:25:16.130Z,63.09
2018-07-20T01:27:44.438Z,62.01
2018-07-20T01:30:12.779Z,62.05
2018-07-20T01:32:41.084Z,63.67
2018-07-20T01:35:09.435Z,63.46
2018-07-20T01:37:37.856Z,63.34
2018-07-20T01:40:06.165Z,63.19
2018-07-20T01:42:34.540Z,63.03
2018-07-20T01:45:02.885Z,63.10
2018-07-20T01:47:31.232Z,63.78
2018-07-20T01:49:59.551Z,64.54
2018-07-20T01:52:27.887Z,64.39
2018-07-20T01:54:56.233Z,64.43
2018-07-20T01:57:24.563Z,65.47
2018-07-20T01:59:52.890Z,63.93
2018-07-20T02:02:21.200Z,64.94
2018-07-20T02:04:49.493Z,65.38
2018-07-20T02:07:17.803Z,65.58
2018-07-20T02:09:46.131Z,64.51
2018-07-20T02:12:14.462Z,64.98
2018-07-20T02:14:42.771Z,65.44
2018-07-20T02:17:11.098Z,65.34
2018-07-20T02:19:39.431Z,65.36
2018-07-20T02:22:07.747Z,66.48
2018-07-20T02:24:36.065Z,67.07
2018-07-20T02:27:04.405Z,67.98
2018-07-20T02:29:32.814Z,66.07
2018-07-20T02:32:01.100Z,66.77
2018-07-20T02:34:29.441Z,66.20
2018-07-20T02:36:57.756Z,65.95
2018-07-20T02:39:26.105Z,65.89
2018-07-20T02:41:54.436Z,66.02
2018-07-20T02:44:22.882Z,65.36
2018-07-20T02:46:51.205Z,67.57
2018-07-20T02:49:19.522Z,66.57
2018-07-20T02:51:47.860Z,66.92
2018-07-20T02:54:16.196Z,66.85
2018-07-20T02:56:44.498Z,67.38
2018-07-20T02:59:12.829Z,67.03
2018-07-20T03:01:41.184Z,67.64
2018-07-20T03:04:09.516Z,68.04
2018-07-20T03:06:37.903Z,68.13
2018-07-20T03:09:09.444Z,69.13
2018-07-20T03:11:37.785Z,69.53
2018-07-20T03:14:06.209Z,69.02
2018-07-20T03:16:34.546Z,69.03
2018-07-20T03:19:02.869Z,68.70
2018-07-20T03:21:31.212Z,69.03
2018-07-20T03:23:59.563Z,70.42
2018-07-20T03:26:27.928Z,69.63
2018-07-20T03:28:56.245Z,69.76
2018-07-20T03:31:24.588Z,69.93
2018-07-20T03:33:52.905Z,70.77
2018-07-20T03:36:21.252Z,70.22
2018-07-20T03:38:49.588Z,71.19
2018-07-20T03:41:17.909Z,72.94
2018-07-20T03:43:46.244Z,73.02
2018-07-20T03:46:14.560Z,70.58
2018-07-20T03:48:42.868Z,70.15
2018-07-20T03:51:11.199Z,70.53
2018-07-20T03:53:39.560Z,71.32
2018-07-20T03:56:07.902Z,70.76
2018-07-20T03:58:36.247Z,72.37
2018-07-20T04:01:04.628Z,71.83
2018-07-20T04:03:32.987Z,73.63
2018-07-20T04:06:01.306Z,72.89
2018-07-20T04:08:29.623Z,72.72
2018-07-20T04:10:57.945Z,72.27
2018-07-20T04:13:26.240Z,73.01
2018-07-20T04:15:54.576Z,72.83
2018-07-20T04:18:22.892Z,73.67
2018-07-20T04:20:51.197Z,72.66
2018-07-20T04:23:19.560Z,72.50
2018-07-20T04:25:47.877Z,72.07
2018-07-20T04:28:16.248Z,71.65
2018-07-20T04:30:44.583Z,72.25
2018-07-20T04:33:12.889Z,71.71
2018-07-20T04:35:41.220Z,71.21
2018-07-20T04:38:09.542Z,73.34
2018-07-20T04:40:37.912Z,72.06
2018-07-20T04:43:06.257Z,71.16
2018-07-20T04:45:34.580Z,70.66
2018-07-20T04:48:02.962Z,71.53
2018-07-20T04:50:31.301Z,71.48
2018-07-20T04:52:59.649Z,70.77
2018-07-20T04:55:28.017Z,70.38
2018-07-20T04:57:56.430Z,70.29
2018-07-20T05:00:24.877Z,69.95
2018-07-20T05:02:53.222Z,69.28
2018-07-20T05:05:21.566Z,69.02
2018-07-20T05:07:49.904Z,69.35
2018-07-20T05:10:18.256Z,69.08
2018-07-20T05:12:46.699Z,68.75
2018-07-20T05:15:15.044Z,68.61
2018-07-20T05:17:43.388Z,68.09
2018-07-20T05:20:11.735Z,67.84
2018-07-20T05:22:40.076Z,67.60
2018-07-20T05:25:08.424Z,67.62
2018-07-20T05:27:36.772Z,67.90
2018-07-20T05:30:05.665Z,67.43
2018-07-20T05:32:34.048Z,67.55
2018-07-20T05:35:02.380Z,66.86
2018-07-20T05:37:30.701Z,67.49
2018-07-20T05:39:58.994Z,66.53
2018-07-20T05:42:27.320Z,65.92
2018-07-20T05:44:55.687Z,65.86
2018-07-20T05:47:24.093Z,66.12
2018-07-20T05:49:52.458Z,65.34
2018-07-20T05:52:20.800Z,65.08
2018-07-20T05:54:49.179Z,64.83
2018-07-20T05:57:17.553Z,63.76
2018-07-20T05:59:46.126Z,62.98
2018-07-20T06:02:14.916Z,61.96
2018-07-20T06:04:43.271Z,62.78
2018-07-20T06:07:11.630Z,61.77
2018-07-20T06:09:39.993Z,62.24
2018-07-20T06:12:08.345Z,62.37
2018-07-20T06:14:36.710Z,61.55
2018-07-20T06:17:05.049Z,60.12
2018-07-20T06:19:33.381Z,59.99
2018-07-20T06:22:01.724Z,60.00
2018-07-20T06:24:30.075Z,60.37
2018-07-20T06:26:58.435Z,60.20
2018-07-20T06:29:26.768Z,60.12
2018-07-20T06:31:55.106Z,59.74
2018-07-20T06:34:23.445Z,59.32
2018-07-20T06:36:51.775Z,59.02
2018-07-20T06:39:20.104Z,59.39
2018-07-20T06:41:48.479Z,59.22
2018-07-20T06:44:16.828Z,56.82
2018-07-20T06:46:45.186Z,55.52
2018-07-20T06:49:13.538Z,54.73
2018-07-20T06:51:41.878Z,53.30
2018-07-20T06:54:10.195Z,52.28
2018-07-20T06:56:38.526Z,50.47
2018-07-20T06:59:06.880Z,51.07
2018-07-20T07:01:35.208Z,50.73
2018-07-20T07:04:03.627Z,48.48
2018-07-20T07:06:31.965Z,47.67
2018-07-20T07:09:00.379Z,46.71
2018-07-20T07:11:28.724Z,46.28
2018-07-20T07:13:57.071Z,44.84
2018-07-20T07:16:25.404Z,43.54
2018-07-20T07:18:53.731Z,41.65
2018-07-20T07:21:22.136Z,44.11
2018-07-20T07:23:50.513Z,42.74
2018-07-20T07:26:18.829Z,42.07
2018-07-20T07:28:47.173Z,42.69
2018-07-20T07:31:15.519Z,39.79
2018-07-20T07:33:43.864Z,40.13
2018-07-20T07:36:12.223Z,40.80
2018-07-20T07:38:40.585Z,40.37
2018-07-20T07:41:09.079Z,36.88
2018-07-20T07:43:37.415Z,38.03
2018-07-20T07:46:05.802Z,38.46
2018-07-20T07:48:34.125Z,38.46
2018-07-20T07:51:02.436Z,38.37
2018-07-20T07:53:30.855Z,36.37
2018-07-20T07:55:59.179Z,37.95
2018-07-20T07:58:27.521Z,37.42
2018-07-20T08:00:55.838Z,37.55
2018-07-20T08:03:24.177Z,37.66
2018-07-20T08:05:52.519Z,36.97
2018-07-20T08:08:20.854Z,34.73
2018-07-20T08:10:49.176Z,35.01
2018-07-20T08:13:17.497Z,34.39
2018-07-20T08:15:45.885Z,33.75
2018-07-20T08:18:14.217Z,33.91
2018-07-20T08:20:42.618Z,32.72
2018-07-20T08:23:10.923Z,30.94
2018-07-20T08:25:39.272Z,32.21
2018-07-20T08:28:07.610Z,31.83
2018-07-20T08:30:35.936Z,32.35
2018-07-20T08:33:04.277Z,32.11
2018-07-20T08:35:32.625Z,31.93
2018-07-20T08:38:00.937Z,31.07
2018-07-20T08:40:29.366Z,29.44
2018-07-20T08:42:57.793Z,30.04
2018-07-20T08:45:26.171Z,28.55
2018-07-20T08:47:54.584Z,29.13
2018-07-20T08:50:22.915Z,29.25
2018-07-20T08:52:51.234Z,29.67
2018-07-20T08:55:19.528Z,27.08
2018-07-20T08:57:47.991Z,27.94
2018-07-20T09:00:16.305Z,26.69
2018-07-20T09:02:44.638Z,27.42
2018-07-20T09:05:12.944Z,26.32
2018-07-20T09:07:41.284Z,26.87
2018-07-20T09:10:09.905Z,27.39
2018-07-20T09:12:38.228Z,24.52
2018-07-20T09:15:06.568Z,26.43
2018-07-20T09:17:34.901Z,25.46
2018-07-20T09:20:03.233Z,25.68
2018-07-20T09:22:31.556Z,26.71
2018-07-20T09:24:59.874Z,26.00
2018-07-20T09:27:28.212Z,25.63
2018-07-20T09:29:56.527Z,24.91
2018-07-20T09:32:24.851Z,25.71
2018-07-20T09:34:53.176Z,24.69
2018-07-20T09:37:21.495Z,25.32
2018-07-20T09:39:49.837Z,24.87
2018-07-20T09:42:18.207Z,25.17
2018-07-20T09:44:46.560Z,24.80
2018-07-20T09:47:14.885Z,24.00
2018-07-20T09:49:43.251Z,24.42
2018-07-20T09:52:11.669Z,24.13
2018-07-20T09:54:40.005Z,23.62
2018-07-20T09:57:08.932Z,23.85
2018-07-20T09:59:37.281Z,22.27
2018-07-20T10:02:05.780Z,23.70
2018-07-20T10:04:34.131Z,23.54
2018-07-20T10:07:02.449Z,23.05
2018-07-20T10:09:30.788Z,23.66
2018-07-20T10:11:59.166Z,23.37
2018-07-20T10:14:27.516Z,23.11
2018-07-20T10:16:55.863Z,22.36
2018-07-20T10:19:24.202Z,22.66
2018-07-20T10:21:52.515Z,24.57
2018-07-20T10:24:20.823Z,25.83
2018-07-20T10:26:49.154Z,23.59
2018-07-20T10:29:17.512Z,23.28
2018-07-20T10:31:45.851Z,22.01
2018-07-20T10:34:14.165Z,22.21
2018-07-20T10:36:42.519Z,22.83
2018-07-20T10:39:11.320Z,23.06
2018-07-20T10:41:39.655Z,23.09
2018-07-20T10:44:07.990Z,23.61
2018-07-20T10:46:36.397Z,23.72
2018-07-20T10:49:04.980Z,23.60
2018-07-20T10:51:33.307Z,23.65
2018-07-20T10:54:01.610Z,23.60
2018-07-20T10:56:29.910Z,24.64
2018-07-20T10:58:58.222Z,25.05
2018-07-20T11:01:26.632Z,24.61
2018-07-20T11:03:55.022Z,25.39
2018-07-20T11:06:23.348Z,26.32
2018-07-20T11:08:51.633Z,27.74
2018-07-20T11:11:19.938Z,26.71
2018-07-20T11:13:48.277Z,28.02
2018-07-20T11:16:16.620Z,27.52
2018-07-20T11:18:44.946Z,28.42
2018-07-20T11:21:13.272Z,28.54
2018-07-20T11:23:41.589Z,28.82
2018-07-20T11:26:09.999Z,28.30
2018-07-20T11:28:38.337Z,28.94
2018-07-20T11:31:06.655Z,29.79
2018-07-20T11:33:34.992Z,30.08
2018-07-20T11:36:03.381Z,30.08
2018-07-20T11:38:31.690Z,31.37
2018-07-20T11:41:00.036Z,31.30
2018-07-20T11:43:28.369Z,31.04
2018-07-20T11:45:56.725Z,31.74
2018-07-20T11:48:25.855Z,31.09
2018-07-20T11:50:54.200Z,31.78
2018-07-20T11:53:22.508Z,31.53
2018-07-20T11:55:50.898Z,32.08
2018-07-20T11:58:19.186Z,32.21
2018-07-20T12:00:47.510Z,32.76
2018-07-20T12:03:15.831Z,31.78
2018-07-20T12:05:44.153Z,32.46
2018-07-20T12:08:12.468Z,32.35
2018-07-20T12:10:40.846Z,32.50
2018-07-20T12:13:09.202Z,33.41
2018-07-20T12:15:37.530Z,33.23
2018-07-20T12:18:05.965Z,33.69
2018-07-20T12:20:34.268Z,33.80
2018-07-20T12:23:02.600Z,33.05
2018-07-20T12:25:30.947Z,33.48
2018-07-20T12:27:59.271Z,34.13
2018-07-20T12:30:27.620Z,34.93
2018-07-20T12:32:55.953Z,33.57
2018-07-20T12:35:24.303Z,33.71
2018-07-20T12:37:52.620Z,34.55
2018-07-20T12:40:21.011Z,35.02
2018-07-20T12:42:49.364Z,34.74
2018-07-20T12:45:17.693Z,34.45
2018-07-20T12:47:46.068Z,34.16
2018-07-20T12:50:14.456Z,34.28
2018-07-20T12:52:42.726Z,34.56
2018-07-20T12:55:11.059Z,34.24
2018-07-20T12:57:39.379Z,34.42
2018-07-20T13:00:07.714Z,34.47
2018-07-20T13:02:36.032Z,34.54
2018-07-20T13:05:04.724Z,34.97
2018-07-20T13:07:33.055Z,34.79
2018-07-20T13:10:01.361Z,34.88
2018-07-20T13:12:29.691Z,35.10
2018-07-20T13:14:57.994Z,34.47
2018-07-20T13:17:26.323Z,34.70
2018-07-20T13:19:54.642Z,34.52
2018-07-20T13:22:22.973Z,34.70
2018-07-20T13:24:51.341Z,35.70
2018-07-20T13:27:19.665Z,34.88
2018-07-20T13:29:47.992Z,34.81
2018-07-20T13:32:16.353Z,34.63
2018-07-20T13:34:45.746Z,34.88
2018-07-20T13:37:14.076Z,34.86
2018-07-20T13:39:42.410Z,34.90
2018-07-20T13:42:10.744Z,35.04
2018-07-20T13:44:39.047Z,35.07
2018-07-20T13:47:07.360Z,35.03
2018-07-20T13:49:35.687Z,35.04
2018-07-20T13:52:04.042Z,34.81
2018-07-20T13:54:32.402Z,34.45
2018-07-20T13:57:00.716Z,34.46
2018-07-20T13:59:29.050Z,34.45
2018-07-20T14:01:57.373Z,34.79
2018-07-20T14:04:25.694Z,34.88
2018-07-20T14:06:54.052Z,35.13
2018-07-20T14:09:22.510Z,35.23
2018-07-20T14:11:50.851Z,34.81
2018-07-20T14:14:19.218Z,35.04
2018-07-20T14:16:47.614Z,36.04
2018-07-20T14:19:15.922Z,35.62
2018-07-20T14:21:44.252Z,35.24
2018-07-20T14:24:12.578Z,36.11
2018-07-20T14:26:40.915Z,35.87
2018-07-20T14:29:09.238Z,36.03
2018-07-20T14:31:37.628Z,36.68
2018-07-20T14:34:05.997Z,36.00
2018-07-20T14:36:34.341Z,35.91
2018-07-20T14:39:02.692Z,35.84
2018-07-20T14:41:31.010Z,35.73
2018-07-20T14:43:59.362Z,36.01
2018-07-20T14:46:27.671Z,36.00
2018-07-20T14:48:56.013Z,36.17
2018-07-20T14:51:24.397Z,35.67
2018-07-20T14:53:52.704Z,36.30
2018-07-20T14:56:21.029Z,36.16
2018-07-20T14:58:49.407Z,35.72
2018-07-20T15:01:17.760Z,35.93
2018-07-20T15:03:46.077Z,35.44
2018-07-20T15:06:14.444Z,35.72
2018-07-20T15:08:42.856Z,35.43
2018-07-20T15:11:11.219Z,35.56
2018-07-20T15:13:39.554Z,35.14
2018-07-20T15:16:07.955Z,35.53
2018-07-20T15:18:36.320Z,35.55
2018-07-20T15:21:04.635Z,35.49
2018-07-20T15:23:33.063Z,35.94
2018-07-20T15:26:01.351Z,35.92
2018-07-20T15:28:29.690Z,36.04
2018-07-20T15:30:58.006Z,35.83
2018-07-20T15:33:26.376Z,36.84
2018-07-20T15:35:54.727Z,36.57
2018-07-20T15:38:23.099Z,36.17
2018-07-20T15:40:51.437Z,36.10
2018-07-20T15:43:19.772Z,36.73
2018-07-20T15:45:52.100Z,36.77
2018-07-20T15:48:16.455Z,36.82
2018-07-20T15:50:44.795Z,35.90
2018-07-20T15:53:39.824Z,36.69
2018-07-20T15:55:41.557Z,36.58
2018-07-20T15:58:09.874Z,36.65
2018-07-20T16:00:38.204Z,37.24
2018-07-20T16:03:06.657Z,36.31
2018-07-20T16:05:35.043Z,36.58
2018-07-20T16:08:03.375Z,36.88
2018-07-20T16:10:31.702Z,36.76
2018-07-20T16:13:00.065Z,37.76
2018-07-20T16:15:28.405Z,37.33
2018-07-20T16:17:56.740Z,37.83
2018-07-20T16:20:25.080Z,36.88
2018-07-20T16:22:53.441Z,37.44
2018-07-20T16:25:21.764Z,37.17
2018-07-20T16:27:50.126Z,37.45
2018-07-20T16:30:18.451Z,36.85
2018-07-20T16:32:46.768Z,37.02
2018-07-20T16:35:15.120Z,37.76
2018-07-20T16:37:43.462Z,37.65
2018-07-20T16:40:11.824Z,37.28
2018-07-20T16:42:40.224Z,37.32
2018-07-20T16:45:08.549Z,37.55
2018-07-20T16:47:36.868Z,37.50
2018-07-20T16:50:05.480Z,38.17
2018-07-20T16:52:33.829Z,37.67
2018-07-20T16:55:02.176Z,38.08
2018-07-20T16:57:30.510Z,38.12
2018-07-20T16:59:58.853Z,38.27
2018-07-20T17:02:27.200Z,38.83
2018-07-20T17:04:55.547Z,37.73
2018-07-20T17:07:23.915Z,37.95
2018-07-20T17:09:52.234Z,37.48
2018-07-20T17:12:20.592Z,37.70
2018-07-20T17:14:48.919Z,38.05
2018-07-20T17:17:17.360Z,37.94
2018-07-20T17:19:45.722Z,37.66
2018-07-20T17:22:14.028Z,37.60
2018-07-20T17:24:42.396Z,38.01
2018-07-20T17:27:10.732Z,38.20
2018-07-20T17:29:39.068Z,37.78
2018-07-20T17:32:07.442Z,38.50
2018-07-20T17:34:35.748Z,38.24
2018-07-20T17:37:04.134Z,38.92
2018-07-20T17:39:32.449Z,38.32
2018-07-20T17:42:00.765Z,38.20
2018-07-20T17:44:29.066Z,38.47
2018-07-20T17:46:57.379Z,37.99
2018-07-20T17:49:25.705Z,38.82
2018-07-20T17:51:54.052Z,38.78
2018-07-20T17:54:22.370Z,38.04
2018-07-20T17:56:50.734Z,38.61
2018-07-20T17:59:19.191Z,38.24
2018-07-20T18:01:47.524Z,39.81
2018-07-20T18:04:15.844Z,38.99
2018-07-20T18:06:44.208Z,39.45
2018-07-20T18:09:12.584Z,39.58
2018-07-20T18:11:40.946Z,39.24
2018-07-20T18:14:09.284Z,39.52
2018-07-20T18:16:37.596Z,39.23
2018-07-20T18:19:05.940Z,39.00
2018-07-20T18:21:34.279Z,39.50
2018-07-20T18:24:02.612Z,38.98
2018-07-20T18:26:30.976Z,39.02
2018-07-20T18:28:59.278Z,39.69
2018-07-20T18:31:27.671Z,39.57
2018-07-20T18:33:56.142Z,39.34
2018-07-20T18:36:24.365Z,40.21
2018-07-20T18:38:52.797Z,39.45
2018-07-20T18:41:21.122Z,39.43
2018-07-20T18:43:49.473Z,40.18
2018-07-20T18:46:17.830Z,39.20
2018-07-20T18:48:46.138Z,39.19
2018-07-20T18:51:14.491Z,39.09
2018-07-20T18:53:42.837Z,38.51
2018-07-20T18:56:11.172Z,38.53
2018-07-20T18:58:39.537Z,38.04
2018-07-20T19:01:08.001Z,38.06
2018-07-20T19:03:36.328Z,38.40
2018-07-20T19:06:04.655Z,38.52
2018-07-20T19:08:32.984Z,38.30
2018-07-20T19:11:01.306Z,37.71
2018-07-20T19:13:29.717Z,38.00
2018-07-20T19:15:58.044Z,38.57
2018-07-20T19:18:26.484Z,38.27
2018-07-20T19:20:54.864Z,38.38
2018-07-20T19:23:23.282Z,38.48
2018-07-20T19:25:51.620Z,38.41
2018-07-20T19:28:19.977Z,38.38
2018-07-20T19:30:48.318Z,38.32
2018-07-20T19:33:16.615Z,38.02
2018-07-20T19:35:44.918Z,37.94
2018-07-20T19:38:13.322Z,38.28
2018-07-20T19:40:41.642Z,37.74
2018-07-20T19:43:10.037Z,38.32
2018-07-20T19:45:38.394Z,37.87
2018-07-20T19:48:06.727Z,38.68
2018-07-20T19:50:35.078Z,38.11
2018-07-20T19:53:03.463Z,38.81
2018-07-20T19:55:31.803Z,38.57
2018-07-20T19:58:00.123Z,40.06
2018-07-20T20:00:28.454Z,39.99
2018-07-20T20:02:56.794Z,39.63
2018-07-20T20:05:25.119Z,40.20
2018-07-20T20:07:53.455Z,40.31
2018-07-20T20:10:21.804Z,39.55
2018-07-20T20:12:50.265Z,40.13
2018-07-20T20:15:18.657Z,39.71
2018-07-20T20:17:46.983Z,39.40
2018-07-20T20:20:15.312Z,39.45
2018-07-20T20:22:44.697Z,39.84
2018-07-20T20:25:13.128Z,39.53
2018-07-20T20:27:41.879Z,40.09
2018-07-20T20:30:10.228Z,40.43
2018-07-20T20:32:38.603Z,40.06
2018-07-20T20:35:06.982Z,40.05
2018-07-20T20:37:35.329Z,39.70
2018-07-20T20:40:03.666Z,40.43
2018-07-20T20:42:31.971Z,39.85
2018-07-20T20:45:00.298Z,40.61
2018-07-20T20:47:28.610Z,40.65
2018-07-20T20:49:56.958Z,39.93
2018-07-20T20:52:25.334Z,40.49
2018-07-20T20:54:53.648Z,40.29
2018-07-20T20:57:21.984Z,40.98
2018-07-20T20:59:50.307Z,40.50
2018-07-20T21:02:18.683Z,40.21
2018-07-20T21:04:47.093Z,40.90
2018-07-20T21:07:15.416Z,40.13
2018-07-20T21:09:43.739Z,40.70
2018-07-20T21:12:12.253Z,40.57
2018-07-20T21:14:40.390Z,40.52
2018-07-20T21:17:08.717Z,40.44
2018-07-20T21:19:37.040Z,40.43
2018-07-20T21:22:05.393Z,40.45
2018-07-20T21:24:33.695Z,40.78
2018-07-20T21:27:02.050Z,40.87
2018-07-20T21:29:30.356Z,40.68
2018-07-20T21:31:58.712Z,40.04
2018-07-20T21:34:27.165Z,40.78
2018-07-20T21:36:55.474Z,40.82
2018-07-20T21:39:23.788Z,40.48
2018-07-20T21:41:52.128Z,40.98
2018-07-20T21:44:20.461Z,40.77
2018-07-20T21:46:48.780Z,41.37
2018-07-20T21:49:17.099Z,41.29
2018-07-20T21:51:45.436Z,41.28
2018-07-20T21:54:13.786Z,41.88
2018-07-20T21:56:42.137Z,41.20
2018-07-20T21:59:10.495Z,41.00
2018-07-20T22:01:38.822Z,41.40
2018-07-20T22:04:07.146Z,41.25
2018-07-20T22:06:35.515Z,40.84
2018-07-20T22:09:04.700Z,41.00
2018-07-20T22:11:33.035Z,40.93
2018-07-20T22:14:01.363Z,40.94
2018-07-20T22:16:29.732Z,41.09
2018-07-20T22:18:58.139Z,41.39
2018-07-20T22:21:26.469Z,41.73
2018-07-20T22:23:54.769Z,41.28
2018-07-20T22:26:23.093Z,41.81
2018-07-20T22:28:51.431Z,41.48
2018-07-20T22:31:19.766Z,41.28
2018-07-20T22:33:48.090Z,41.71
2018-07-20T22:36:16.462Z,42.11
2018-07-20T22:38:44.780Z,41.63
2018-07-20T22:41:13.074Z,42.81
2018-07-20T22:43:41.404Z,42.22
2018-07-20T22:46:09.780Z,42.19
2018-07-20T22:48:38.095Z,42.14
2018-07-20T22:51:06.471Z,42.92
2018-07-20T22:53:34.853Z,42.81
2018-07-20T22:56:03.164Z,42.34
2018-07-20T22:58:31.477Z,43.18
2018-07-20T23:00:59.805Z,42.56
2018-07-20T23:03:28.161Z,43.27
2018-07-20T23:05:56.500Z,42.98
2018-07-20T23:08:24.821Z,43.18
2018-07-20T23:10:53.156Z,43.37
2018-07-20T23:13:21.502Z,43.31
2018-07-20T23:15:49.815Z,43.61
2018-07-20T23:18:18.134Z,44.05
2018-07-20T23:20:46.479Z,44.11
2018-07-20T23:23:14.822Z,44.19
2018-07-20T23:25:43.137Z,44.14
2018-07-20T23:28:11.473Z,44.92
2018-07-20T23:30:39.799Z,44.46
2018-07-20T23:33:08.136Z,44.25
2018-07-20T23:35:36.458Z,44.94
2018-07-20T23:38:04.892Z,45.49
2018-07-20T23:40:33.225Z,45.47
2018-07-20T23:43:01.556Z,45.99
2018-07-20T23:45:29.895Z,46.17
2018-07-20T23:47:58.318Z,46.22
2018-07-20T23:50:26.651Z,47.00
2018-07-20T23:52:54.996Z,47.10
2018-07-20T23:55:23.324Z,47.78
2018-07-20T23:57:51.689Z,47.61
